Time;durP1;ratioP1;P1;durP2;ratioP2;P2;SDS_P1;SDS_P2;PMS_P1;PMS_P2;Temp;Humidity;BMP_temperature;BMP_pressure;BME280_temperature;BME280_humidity;BME280_pressure;Samples;Min_cycle;Max_cycle;Signal;HPM_P1;HPM_P2
2024/02/08 00:01:22;;;;;;;;;;;3.20;99.90;;;;;;2585710;54;20054;31
2024/02/08 00:03:58;;;;;;;9.67;4.13;;;3.20;99.90;;;;;;2584423;54;20009;31
2024/02/08 00:06:36;;;;;;;;;;;3.10;99.90;;;;;;2584794;54;20435;31
2024/02/08 00:09:13;;;;;;;9.55;4.80;;;3.10;99.90;;;;;;2585112;54;19946;31
2024/02/08 00:11:54;;;;;;;13.32;5.15;;;3.10;99.90;;;;;;2585063;54;20806;31
2024/02/08 00:14:29;;;;;;;11.50;5.10;;;3.00;99.90;;;;;;2585351;54;20992;31
2024/02/08 00:17:07;;;;;;;9.00;4.40;;;3.00;99.90;;;;;;2585464;54;20754;31
2024/02/08 00:19:45;;;;;;;15.75;5.45;;;3.10;99.90;;;;;;2585425;54;20077;31
2024/02/08 00:22:30;;;;;;;9.50;4.55;;;3.10;99.90;;;;;;2585319;54;20038;31
2024/02/08 00:25:11;;;;;;;8.55;4.00;;;3.00;99.90;;;;;;2585308;54;20754;31
2024/02/08 00:27:58;;;;;;;17.45;4.10;;;3.10;99.90;;;;;;2585406;54;20988;31
2024/02/08 00:30:33;;;;;;;9.05;3.90;;;3.00;99.90;;;;;;2585437;46;20089;31
2024/02/08 00:33:09;;;;;;;9.75;3.30;;;3.00;99.90;;;;;;2585272;54;20053;31
2024/02/08 00:35:44;;;;;;;10.47;4.57;;;3.00;99.90;;;;;;2585330;54;20990;31
2024/02/08 00:38:19;;;;;;;12.33;3.97;;;3.00;99.90;;;;;;2585408;54;20064;31
2024/02/08 00:40:57;;;;;;;8.93;3.47;;;3.00;99.90;;;;;;2585394;54;21154;31
2024/02/08 00:43:33;;;;;;;8.63;3.63;;;3.00;99.90;;;;;;2683421;39;20437;31
2024/02/08 00:46:17;;;;;;;8.35;4.00;;;3.00;99.90;;;;;;2603113;46;20045;31
2024/02/08 00:48:54;;;;;;;9.65;3.60;;;3.10;99.90;;;;;;2587995;46;20031;31
2024/02/08 00:51:34;;;;;;;9.60;3.70;;;3.00;99.90;;;;;;2604150;46;20030;31
2024/02/08 00:54:09;;;;;;;12.23;4.33;;;3.00;99.90;;;;;;2585144;54;20037;31
2024/02/08 00:56:44;;;;;;;10.82;4.85;;;3.00;99.90;;;;;;2585349;54;20250;31
2024/02/08 00:59:27;;;;;;;7.60;4.35;;;3.00;99.90;;;;;;2585219;54;20990;31
2024/02/08 01:02:05;;;;;;;10.15;4.25;;;3.00;99.90;;;;;;2585222;54;21253;31
2024/02/08 01:04:48;;;;;;;10.05;3.75;;;3.00;99.90;;;;;;2585191;54;20764;31
2024/02/08 01:07:31;;;;;;;12.30;4.60;;;3.00;99.90;;;;;;2584875;54;20839;31
2024/02/08 01:10:11;;;;;;;12.25;4.60;;;3.00;99.90;;;;;;2603518;46;21013;31
2024/02/08 01:12:47;;;;;;;14.43;5.93;;;3.00;99.90;;;;;;2585398;54;22486;31
2024/02/08 01:15:26;;;;;;;12.18;5.50;;;3.00;99.90;;;;;;2603661;46;20081;31
2024/02/08 01:18:07;;;;;;;12.20;5.60;;;3.00;99.90;;;;;;2585029;54;20907;31
2024/02/08 01:20:47;;;;;;;12.60;5.67;;;3.00;99.90;;;;;;2585197;54;20784;31
2024/02/08 01:23:22;;;;;;;11.25;4.90;;;3.00;99.90;;;;;;2585697;54;21131;31
2024/02/08 01:26:03;;;;;;;10.90;5.30;;;3.00;99.90;;;;;;2603316;46;20026;31
2024/02/08 01:28:41;;;;;;;12.70;5.40;;;3.00;99.90;;;;;;2603583;46;20967;31
2024/02/08 01:31:20;;;;;;;15.75;6.60;;;3.00;99.90;;;;;;2584532;54;20959;31
2024/02/08 01:34:00;;;;;;;13.80;6.05;;;2.90;99.90;;;;;;2585288;54;20029;31
2024/02/08 01:36:36;;;;;;;14.73;5.85;;;3.00;99.90;;;;;;2584331;54;20921;31
2024/02/08 01:39:22;;;;;;;13.90;6.53;;;3.00;99.90;;;;;;2584903;54;21085;31
2024/02/08 01:41:59;;;;;;;15.80;6.67;;;3.00;99.90;;;;;;2585066;54;20030;31
2024/02/08 01:44:35;;;;;;;11.83;6.63;;;3.00;99.90;;;;;;2603752;46;20134;31
2024/02/08 01:47:09;;;;;;;17.35;7.65;;;3.00;99.90;;;;;;2603366;46;22481;31
2024/02/08 01:49:50;;;;;;;14.40;6.80;;;3.00;99.90;;;;;;2603518;46;20903;31
2024/02/08 01:52:28;;;;;;;13.00;6.32;;;2.90;99.90;;;;;;2585022;54;20762;31
2024/02/08 01:55:09;;;;;;;17.27;7.50;;;3.00;99.90;;;;;;2585093;54;20187;31
2024/02/08 01:57:45;;;;;;;10.85;5.75;;;3.00;99.90;;;;;;2584992;54;20031;31
2024/02/08 02:00:20;;;;;;;11.63;5.95;;;2.90;99.90;;;;;;2603375;46;20052;31
2024/02/08 02:03:01;;;;;;;14.37;6.17;;;2.90;99.90;;;;;;2585244;54;20886;31
2024/02/08 02:08:18;;;;;;;12.25;5.38;;;2.90;99.90;;;;;;2603659;46;20840;31
2024/02/08 02:10:52;;;;;;;13.73;6.15;;;2.90;99.90;;;;;;2585034;54;20026;31
2024/02/08 02:13:30;;;;;;;11.65;5.70;;;2.80;99.90;;;;;;2701835;39;22493;31
2024/02/08 02:16:09;;;;;;;11.75;5.28;;;2.80;99.90;;;;;;2585062;54;20026;31
2024/02/08 02:18:48;;;;;;;12.25;5.80;;;2.80;99.90;;;;;;2585277;47;21045;31
2024/02/08 02:21:27;;;;;;;15.53;6.37;;;2.70;99.90;;;;;;2584321;54;20089;31
2024/02/08 02:24:03;;;;;;;9.98;5.38;;;2.70;99.90;;;;;;2584221;54;20117;31
2024/02/08 02:26:41;;;;;;;10.00;5.30;;;2.70;99.90;;;;;;2585116;54;20022;31
2024/02/08 02:29:21;;;;;;;13.00;7.15;;;2.60;99.90;;;;;;2585016;54;20076;31
2024/02/08 02:31:59;;;;;;;12.20;6.10;;;2.60;99.90;;;;;;2585121;54;20066;31
2024/02/08 02:34:36;;;;;;;11.80;6.10;;;2.60;99.90;;;;;;2584699;54;20915;31
2024/02/08 02:37:14;;;;;;;12.30;6.20;;;2.60;99.90;;;;;;2584019;54;20022;31
2024/02/08 02:39:49;;;;;;;11.50;6.70;;;2.50;99.90;;;;;;2584161;54;21236;31
2024/02/08 02:42:29;;;;;;;12.10;6.17;;;2.50;99.90;;;;;;2603247;47;21909;31
2024/02/08 02:45:13;;;;;;;10.53;5.37;;;2.60;99.90;;;;;;2603730;47;20937;31
2024/02/08 02:47:55;;;;;;;10.70;5.13;;;2.50;99.90;;;;;;2584677;54;20097;31
2024/02/08 02:50:32;;;;;;;13.00;5.30;;;2.50;99.90;;;;;;2584778;54;20027;31
2024/02/08 02:53:17;;;;;;;12.55;4.85;;;2.50;99.90;;;;;;2603312;47;20034;31
2024/02/08 02:55:58;;;;;;;12.40;5.10;;;2.50;99.90;;;;;;2683051;39;21020;31
2024/02/08 02:58:39;;;;;;;12.30;5.30;;;2.60;99.90;;;;;;2584587;54;20026;31
2024/02/08 03:01:19;;;;;;;12.87;5.30;;;2.50;99.90;;;;;;2585388;54;20930;31
2024/02/08 03:03:57;;;;;;;11.15;4.10;;;2.50;99.90;;;;;;2584766;54;20034;31
2024/02/08 03:06:37;;;;;;;10.60;4.15;;;2.40;99.90;;;;;;2597051;46;20058;31
2024/02/08 03:09:23;;;;;;;12.00;4.50;;;2.40;99.90;;;;;;2603947;46;20991;31
2024/02/08 03:12:02;;;;;;;11.05;4.40;;;2.40;99.90;;;;;;2604014;46;20042;31
2024/02/08 03:14:39;;;;;;;9.50;4.20;;;2.40;99.90;;;;;;2585697;54;21611;31
2024/02/08 03:17:15;;;;;;;11.15;3.75;;;2.30;99.90;;;;;;2585769;54;20947;31
2024/02/08 03:19:51;;;;;;;10.77;4.67;;;2.40;99.90;;;;;;2585617;54;20882;31
2024/02/08 03:22:27;;;;;;;11.00;3.65;;;2.30;99.90;;;;;;2596183;46;20231;31
2024/02/08 03:25:14;;;;;;;9.85;3.60;;;2.30;99.90;;;;;;2585747;54;20058;31
2024/02/08 03:27:52;;;;;;;10.90;4.20;;;2.30;99.90;;;;;;2585751;54;20027;31
2024/02/08 03:30:31;;;;;;;9.47;3.90;;;2.30;99.90;;;;;;2603983;46;20902;31
2024/02/08 03:33:15;;;;;;;11.20;4.75;;;2.30;99.90;;;;;;2585568;54;21632;31
2024/02/08 03:35:54;;;;;;;10.68;4.60;;;2.20;99.90;;;;;;2585584;54;20023;31
2024/02/08 03:38:35;;;;;;;10.63;5.07;;;2.20;99.90;;;;;;2604316;46;20866;31
2024/02/08 03:41:17;;;;;;;8.77;5.70;;;2.10;99.90;;;;;;2603758;46;20914;31
2024/02/08 03:43:54;;;;;;;18.23;7.03;;;2.10;99.90;;;;;;2585811;54;20057;31
2024/02/08 03:46:29;;;;;;;19.92;6.68;;;2.10;99.90;;;;;;2585593;54;20081;31
2024/02/08 03:49:15;;;;;;;18.35;7.00;;;2.10;99.90;;;;;;2701615;39;21518;31
2024/02/08 03:51:53;;;;;;;16.27;7.33;;;2.00;99.90;;;;;;2603417;46;20597;31
2024/02/08 03:54:30;;;;;;;16.25;6.47;;;2.00;99.90;;;;;;2585510;54;20830;31
2024/02/08 03:57:11;;;;;;;12.95;5.30;;;2.00;99.90;;;;;;2683102;39;20564;31
2024/02/08 03:59:52;;;;;;;14.00;5.50;;;2.00;99.90;;;;;;2585235;54;20027;31
2024/02/08 04:02:35;;;;;;;11.10;4.40;;;2.00;99.90;;;;;;2585426;54;21035;31
2024/02/08 04:05:19;;;;;;;10.80;4.20;;;2.00;99.90;;;;;;2585365;54;20856;31
2024/02/08 04:08:02;;;;;;;11.00;4.60;;;2.00;99.90;;;;;;2585416;54;20081;31
2024/02/08 04:53:39;;;;;;;14.60;6.90;;;1.70;99.90;;;;;;2585523;54;20077;31
2024/02/08 04:56:18;;;;;;;14.10;6.40;;;1.70;99.90;;;;;;2585387;54;21175;31
2024/02/08 04:59:02;;;;;;;11.70;5.53;;;1.60;99.90;;;;;;2585201;54;20917;31
2024/02/08 05:01:58;;;;;;;15.60;6.90;;;1.60;99.90;;;;;;2585326;54;20085;31
2024/02/08 05:04:38;;;;;;;14.20;6.55;;;1.70;99.90;;;;;;2585351;54;20035;31
2024/02/08 05:07:26;;;;;;;10.55;5.00;;;1.70;99.90;;;;;;2585418;54;19935;31
2024/02/08 05:10:08;;;;;;;13.40;5.97;;;1.70;99.90;;;;;;2585161;54;20662;31
2024/02/08 05:12:47;;;;;;;11.20;5.80;;;1.70;99.90;;;;;;2585096;54;20042;31
2024/02/08 05:15:27;;;;;;;19.27;6.80;;;1.70;99.90;;;;;;2584913;54;20029;31
2024/02/08 05:18:01;;;;;;;;;;;1.70;99.90;;;;;;2585316;54;20120;31
2024/02/08 05:20:52;;;;;;;10.88;5.57;;;1.70;99.90;;;;;;2603943;46;19939;31
2024/02/08 05:23:33;;;;;;;12.20;5.75;;;1.70;99.90;;;;;;2584899;54;20026;31
2024/02/08 05:26:09;;;;;;;13.65;6.05;;;1.70;99.90;;;;;;2584445;54;20108;31
2024/02/08 05:28:44;;;;;;;13.87;7.47;;;1.70;99.90;;;;;;2603957;46;22006;31
2024/02/08 05:31:25;;;;;;;18.85;7.65;;;1.70;99.90;;;;;;2603378;46;20509;31
2024/02/08 05:36:39;;;;;;;12.57;6.05;;;1.70;99.90;;;;;;2584730;54;20149;31
2024/02/08 05:39:23;;;;;;;15.30;6.40;;;1.60;99.90;;;;;;2585055;54;20081;31
2024/02/08 05:42:02;;;;;;;13.33;5.87;;;1.70;99.90;;;;;;2585586;54;22426;31
2024/02/08 05:44:43;;;;;;;11.70;6.43;;;1.70;99.90;;;;;;2603840;46;20027;31
2024/02/08 05:47:26;;;;;;;18.98;7.03;;;1.70;99.90;;;;;;2585274;54;20759;31
2024/02/08 05:50:06;;;;;;;16.57;6.63;;;1.70;99.90;;;;;;2584105;54;20038;31
2024/02/08 05:52:45;;;;;;;11.80;6.57;;;1.70;99.90;;;;;;2584937;54;20368;31
2024/02/08 05:55:19;;;;;;;14.13;6.63;;;1.70;99.90;;;;;;2585201;54;20808;31
2024/02/08 05:57:58;;;;;;;13.50;6.63;;;1.70;99.90;;;;;;2584736;54;20866;31
2024/02/08 06:00:45;;;;;;;14.20;6.97;;;1.70;99.90;;;;;;2585201;54;20033;31
2024/02/08 06:03:27;;;;;;;18.05;7.85;;;1.70;99.90;;;;;;2584789;54;20734;31
2024/02/08 06:06:16;;;;;;;14.68;6.80;;;1.80;99.90;;;;;;2585066;54;20787;31
2024/02/08 06:08:57;;;;;;;12.60;7.03;;;1.70;99.90;;;;;;2585085;54;20023;31
2024/02/08 06:11:37;;;;;;;14.40;7.15;;;1.80;99.90;;;;;;2584865;54;20847;31
2024/02/08 06:14:21;;;;;;;13.60;7.10;;;1.80;99.90;;;;;;2584811;54;20567;31
2024/02/08 06:16:59;;;;;;;17.33;7.87;;;1.70;99.90;;;;;;2603467;46;20053;31
2024/02/08 06:19:37;;;;;;;12.40;7.43;;;1.80;99.90;;;;;;2584037;54;21041;31
2024/02/08 06:22:22;;;;;;;18.50;9.15;;;1.80;99.90;;;;;;2585075;54;20030;31
2024/02/08 06:28:09;;;;;;;16.03;7.97;;;1.70;99.90;;;;;;2753635;31;20551;31
2024/02/08 06:30:48;;;;;;;25.60;9.60;;;1.70;99.90;;;;;;2584673;54;20105;31
2024/02/08 06:33:25;;;;;;;23.40;9.15;;;1.70;99.90;;;;;;2584899;54;20036;31
2024/02/08 06:36:07;;;;;;;22.80;9.20;;;1.70;99.90;;;;;;2683563;39;21574;31
2024/02/08 06:38:51;;;;;;;23.05;9.98;;;1.70;99.90;;;;;;2585376;54;20089;31
2024/02/08 06:41:51;;;;;;;18.53;10.30;;;1.70;99.90;;;;;;2585505;54;20904;31
2024/02/08 06:44:52;;;;;;;19.15;8.90;;;1.70;99.90;;;;;;2585773;54;20045;31
2024/02/08 07:39:30;;;;;;;42.03;18.53;;;2.00;99.90;;;;;;2585726;54;20130;31
2024/02/08 07:42:19;;;;;;;56.70;27.85;;;2.00;99.90;;;;;;2585557;54;21143;31
2024/02/08 07:44:58;;;;;;;31.63;15.27;;;2.00;99.90;;;;;;2585540;54;20980;31
2024/02/08 07:47:35;;;;;;;76.82;33.35;;;2.10;99.90;;;;;;2603820;46;20800;31
2024/02/08 07:50:24;;;;;;;37.22;14.90;;;2.10;99.90;;;;;;2585598;54;20030;31
2024/02/08 07:53:08;;;;;;;35.63;16.48;;;2.20;99.90;;;;;;2604132;46;21143;31
2024/02/08 07:58:42;;;;;;;27.02;14.10;;;2.60;99.90;;;;;;2585486;54;20782;31
2024/02/08 08:01:20;;;;;;;33.67;14.85;;;2.60;99.90;;;;;;2604232;46;20030;31
2024/02/08 08:03:57;;;;;;;29.25;15.15;;;2.50;99.90;;;;;;2585516;54;20035;31
2024/02/08 08:06:46;;;;;;;32.70;16.13;;;2.50;99.90;;;;;;2585605;54;20023;31
2024/02/08 08:09:26;;;;;;;32.92;15.25;;;2.50;99.90;;;;;;2585490;54;20081;31
2024/02/08 08:12:04;;;;;;;30.40;16.10;;;2.50;99.90;;;;;;2585593;54;20030;31
2024/02/08 08:17:40;;;;;;;27.07;15.33;;;2.40;99.90;;;;;;2585311;54;20737;31
2024/02/08 08:23:25;;;;;;;26.40;12.75;;;2.30;99.90;;;;;;2585553;54;20034;31
2024/02/08 08:29:02;;;;;;;25.15;14.10;;;2.40;99.90;;;;;;2603560;46;20031;31
2024/02/08 08:31:51;;;;;;;33.42;16.38;;;2.50;99.90;;;;;;2585514;54;20956;31
2024/02/08 08:37:39;;;;;;;39.50;22.10;;;2.50;99.90;;;;;;2585536;54;20042;31
2024/02/08 08:40:25;;;;;;;46.15;25.35;;;2.60;99.90;;;;;;2585357;54;20042;31
2024/02/08 08:43:35;;;;;;;38.35;17.70;;;2.60;99.90;;;;;;2682771;39;21475;31
2024/02/08 08:46:17;;;;;;;30.30;14.55;;;2.70;99.90;;;;;;2701681;39;22383;31
2024/02/08 08:49:03;;;;;;;35.27;16.60;;;2.80;99.90;;;;;;2603823;46;20901;31
2024/02/08 08:51:58;;;;;;;30.35;15.65;;;2.80;99.90;;;;;;2585514;54;20030;31
2024/02/08 08:54:36;;;;;;;25.13;14.27;;;2.90;99.90;;;;;;2585370;54;20812;31
2024/02/08 08:57:25;;;;;;;29.77;13.77;;;3.00;99.90;;;;;;2603960;46;20033;31
2024/02/08 09:00:09;;;;;;;24.48;12.02;;;3.10;99.90;;;;;;2585004;54;20763;31
2024/02/08 09:03:25;;;;;;;21.35;10.40;;;3.20;99.90;;;;;;2585433;54;20974;31
2024/02/08 09:09:54;;;;;;;16.13;7.37;;;3.50;99.90;;;;;;2603877;46;21020;31
2024/02/08 09:12:58;;;;;;;18.80;8.45;;;3.60;99.90;;;;;;2589009;46;20920;31
2024/02/08 09:15:48;;;;;;;12.30;7.15;;;3.80;99.90;;;;;;2603697;46;20038;31
2024/02/08 09:19:03;;;;;;;17.53;7.73;;;3.90;99.90;;;;;;2683112;39;20424;31
2024/02/08 09:21:58;;;;;;;17.27;6.30;;;4.10;99.90;;;;;;2584923;54;20776;31
2024/02/08 09:25:10;;;;;;;12.38;6.20;;;4.30;99.90;;;;;;2585492;54;20023;31
2024/02/08 09:28:23;;;;;;;16.10;6.55;;;4.40;99.90;;;;;;2585359;54;21060;31
2024/02/08 09:31:12;;;;;;;17.02;6.22;;;4.40;99.90;;;;;;2585509;54;20026;31
2024/02/08 09:34:00;;;;;;;15.52;6.35;;;4.50;99.90;;;;;;2585097;54;20045;31
2024/02/08 09:36:50;;;;;;;17.55;5.55;;;4.60;99.90;;;;;;2584769;54;20026;31
2024/02/08 09:39:53;;;;;;;12.93;4.60;;;4.60;99.90;;;;;;2584975;54;20103;31
2024/02/08 09:42:54;;;;;;;9.70;4.80;;;4.60;99.90;;;;;;2584949;54;20056;31
2024/02/08 09:46:01;;;;;;;15.30;6.17;;;4.70;99.90;;;;;;2586355;54;20847;31
2024/02/08 09:54:54;;;;;;;10.80;5.05;;;4.80;99.90;;;;;;2585112;54;20030;31
2024/02/08 10:06:56;;;;;;;19.90;4.40;;;4.90;99.90;;;;;;2584835;54;20984;31
2024/02/08 10:09:53;;;;;;;7.95;4.10;;;4.90;99.90;;;;;;2584964;54;20101;31
2024/02/08 10:13:05;;;;;;;10.25;3.70;;;4.90;99.90;;;;;;2585017;54;21002;31
2024/02/08 10:15:55;;;;;;;13.15;4.00;;;4.90;99.90;;;;;;2585211;54;21282;31
2024/02/08 10:26:19;;;;;;;;;;;5.30;99.90;;;;;;2603303;46;20493;31
2024/02/08 10:28:26;;;;;;;9.80;3.50;;;5.60;99.90;;;;;;2584783;54;19941;31
2024/02/08 10:31:22;;;;;;;12.40;3.95;;;5.70;99.90;;;;;;2584801;54;21000;31
2024/02/08 10:37:11;;;;;;;12.32;3.97;;;5.70;99.90;;;;;;2584680;54;20906;31
2024/02/08 10:43:16;;;;;;;9.05;3.92;;;5.70;99.90;;;;;;2584929;54;20980;31
2024/02/08 10:46:16;;;;;;;12.88;5.38;;;5.70;99.90;;;;;;2584735;54;20941;31
2024/02/08 10:49:26;;;;;;;12.83;4.30;;;5.70;99.90;;;;;;2584736;54;20047;31
2024/02/08 10:55:18;;;;;;;11.75;4.40;;;5.60;99.90;;;;;;2603234;47;20031;31
2024/02/08 10:58:20;;;;;;;14.70;6.20;;;5.50;99.90;;;;;;2603224;47;20031;31
2024/02/08 11:04:21;;;;;;;11.05;5.80;;;5.50;99.90;;;;;;2584737;54;20811;31
2024/02/08 11:07:06;;;;;;;14.47;5.57;;;5.60;99.90;;;;;;2584767;54;20038;31
2024/02/08 11:10:02;;;;;;;;;;;5.60;99.90;;;;;;2585435;54;20026;31
2024/02/08 11:12:53;;;;;;;15.57;5.50;;;5.70;99.90;;;;;;2583681;54;20661;31
2024/02/08 11:15:38;;;;;;;17.40;5.53;;;5.70;99.90;;;;;;2583725;54;20105;31
2024/02/08 11:25:18;;;;;;;13.17;7.07;;;5.70;99.90;;;;;;2585420;54;20081;31
2024/02/08 11:31:18;;;;;;;12.65;6.15;;;5.80;99.90;;;;;;2585278;54;21025;31
2024/02/08 11:34:04;;;;;;;21.17;5.53;;;5.70;99.90;;;;;;2585731;54;20958;31
2024/02/08 11:39:31;;;;;;;16.75;6.00;;;5.80;99.90;;;;;;2584537;54;20093;31
2024/02/08 11:42:35;;;;;;;15.57;5.23;;;5.80;99.90;;;;;;2585381;54;20917;31
2024/02/08 11:57:53;;;;;;;11.88;5.18;;;5.70;99.90;;;;;;2682952;39;21838;31
2024/02/08 12:01:03;;;;;;;12.27;5.22;;;5.70;99.90;;;;;;2603530;46;22480;31
2024/02/08 12:03:42;;;;;;;10.70;4.40;;;5.70;99.90;;;;;;2585355;54;21559;31
2024/02/08 12:06:29;;;;;;;12.30;4.65;;;5.70;99.90;;;;;;2585126;54;20915;31
2024/02/08 12:09:22;;;;;;;11.70;4.15;;;5.70;99.90;;;;;;2701475;39;21546;31
2024/02/08 12:12:18;;;;;;;11.83;4.37;;;5.70;99.90;;;;;;2585098;54;20944;31
2024/02/08 12:15:11;;;;;;;9.02;4.15;;;5.60;99.90;;;;;;2585485;54;20081;31
2024/02/08 12:17:52;;;;;;;7.50;3.58;;;5.60;99.90;;;;;;2585372;54;20074;31
2024/02/08 12:21:00;;;;;;;11.10;3.90;;;5.60;99.90;;;;;;2603863;46;20038;31
2024/02/08 12:26:53;;;;;;;9.98;4.03;;;5.60;99.90;;;;;;2585511;54;20030;31
2024/02/08 12:33:17;;;;;;;8.98;4.18;;;5.60;99.90;;;;;;2585410;54;20026;31
2024/02/08 12:35:58;;;;;;;17.38;5.13;;;5.60;99.90;;;;;;2585178;54;20022;31
2024/02/08 12:38:50;;;;;;;12.27;4.22;;;5.70;99.90;;;;;;2585292;54;21338;31
2024/02/08 12:41:38;;;;;;;16.00;5.20;;;5.60;99.90;;;;;;2603090;46;20053;31
2024/02/08 12:44:24;;;;;;;14.60;4.95;;;5.70;99.90;;;;;;2682975;39;20416;31
2024/02/08 12:47:06;;;;;;;10.45;5.20;;;5.70;99.90;;;;;;2585113;54;20026;31
2024/02/08 12:49:57;;;;;;;11.15;4.45;;;5.60;99.90;;;;;;2584943;54;20829;31
2024/02/08 12:53:05;;;;;;;6.65;3.05;;;5.60;99.90;;;;;;2584179;54;20915;31
2024/02/08 12:55:48;;;;;;;7.75;4.05;;;5.70;99.90;;;;;;2585249;54;20969;31
2024/02/08 12:58:28;;;;;;;9.70;4.05;;;5.80;99.90;;;;;;2603424;46;20938;31
2024/02/08 13:01:14;;;;;;;11.00;4.00;;;5.80;99.90;;;;;;2603569;46;20027;31
2024/02/08 13:03:54;;;;;;;12.27;4.60;;;5.80;99.90;;;;;;2584996;54;20030;31
2024/02/08 13:06:46;;;;;;;9.17;3.57;;;5.90;99.90;;;;;;2584978;54;21370;31
2024/02/08 13:09:37;;;;;;;9.65;4.00;;;5.90;99.90;;;;;;2584669;54;20826;31
2024/02/08 13:12:21;;;;;;;12.20;4.50;;;6.00;99.90;;;;;;2585266;54;20027;31
2024/02/08 13:15:20;;;;;;;8.23;4.45;;;6.00;99.90;;;;;;2682706;39;22424;31
2024/02/08 13:17:58;;;;;;;6.10;3.85;;;6.00;99.90;;;;;;2584886;54;20926;31
2024/02/08 13:20:38;;;;;;;14.32;7.57;;;6.00;99.90;;;;;;2585294;54;20050;31
2024/02/08 13:23:24;;;;;;;13.80;6.00;;;6.00;99.90;;;;;;2585188;54;21010;31
2024/02/08 13:26:06;;;;;;;17.90;9.82;;;6.00;99.90;;;;;;2584617;54;20035;31
2024/02/08 13:28:58;;;;;;;13.70;6.20;;;6.00;99.90;;;;;;2603766;46;20892;31
2024/02/08 13:31:38;;;;;;;14.75;6.15;;;6.00;99.90;;;;;;2585077;54;20026;31
2024/02/08 13:34:15;;;;;;;19.70;9.40;;;6.00;99.90;;;;;;2584312;54;20981;31
2024/02/08 13:37:03;;;;;;;13.20;5.40;;;6.00;99.90;;;;;;2585213;54;20026;31
2024/02/08 13:39:45;;;;;;;9.85;6.03;;;6.00;99.90;;;;;;2603695;46;20048;31
2024/02/08 13:42:26;;;;;;;12.75;5.75;;;6.00;99.90;;;;;;2584159;54;20097;31
2024/02/08 13:45:28;;;;;;;9.90;5.20;;;6.00;99.90;;;;;;2603359;46;20868;31
2024/02/08 13:50:43;;;;;;;13.67;5.77;;;6.00;99.90;;;;;;2584328;54;20038;31
2024/02/08 13:53:28;;;;;;;12.20;5.20;;;5.90;99.90;;;;;;2603382;46;20037;31
2024/02/08 13:58:54;;;;;;;13.15;5.40;;;5.90;99.90;;;;;;2646424;53;20993;31
2024/02/08 14:01:39;;;;;;;13.23;6.45;;;5.90;99.90;;;;;;2606802;54;20047;31
2024/02/08 14:07:00;;;;;;;13.20;6.60;;;6.00;99.90;;;;;;2607155;54;20085;31
2024/02/08 14:09:43;;;;;;;13.80;6.95;;;5.90;99.90;;;;;;2625618;46;20077;31
2024/02/08 14:12:25;;;;;;;15.40;7.30;;;5.90;99.90;;;;;;2606543;54;21097;31
2024/02/08 14:15:07;;;;;;;14.93;5.75;;;5.90;99.90;;;;;;2605787;54;20917;31
2024/02/08 14:17:54;;;;;;;15.18;5.50;;;5.90;99.90;;;;;;2606647;54;20026;31
2024/02/08 14:20:39;;;;;;;11.50;5.23;;;5.90;99.90;;;;;;2625432;46;20977;31
2024/02/08 14:23:29;;;;;;;15.85;6.00;;;5.90;99.90;;;;;;2606951;54;20074;31
2024/02/08 14:26:30;;;;;;;11.63;5.47;;;5.90;99.90;;;;;;2606974;54;20858;31
2024/02/08 14:29:10;;;;;;;13.70;5.93;;;5.90;99.90;;;;;;2607169;54;20849;31
2024/02/08 14:32:00;;;;;;;9.63;4.78;;;5.90;99.90;;;;;;2606829;54;20057;31
2024/02/08 14:35:16;;;;;;;12.93;4.80;;;5.80;99.90;;;;;;2606757;54;20026;31
2024/02/08 14:37:58;;;;;;;13.55;4.70;;;5.80;99.90;;;;;;2606988;54;20753;31
2024/02/08 14:40:37;;;;;;;10.63;5.88;;;5.70;99.90;;;;;;2606821;54;20037;31
2024/02/08 14:43:25;;;;;;;13.43;5.40;;;5.70;99.90;;;;;;2607060;54;20872;31
2024/02/08 14:46:11;;;;;;;23.58;9.38;;;5.70;99.90;;;;;;2606780;54;21563;31
2024/02/08 14:48:53;;;;;;;19.15;8.30;;;5.60;99.90;;;;;;2625351;46;20026;31
2024/02/08 14:51:36;;;;;;;13.15;5.45;;;5.60;99.90;;;;;;2606198;54;20056;31
2024/02/08 14:54:26;;;;;;;12.35;5.05;;;5.50;99.90;;;;;;2606823;54;20033;31
2024/02/08 14:57:09;;;;;;;11.00;5.63;;;5.50;99.90;;;;;;2606762;54;20876;31
2024/02/08 14:59:49;;;;;;;10.10;4.88;;;5.50;99.90;;;;;;2606918;54;20026;31
2024/02/08 15:02:33;;;;;;;10.68;5.10;;;5.50;99.90;;;;;;2606696;54;20030;31
2024/02/08 15:05:15;;;;;;;15.07;5.28;;;5.40;99.90;;;;;;2606888;54;20841;31
2024/02/08 15:10:46;;;;;;;13.80;6.23;;;5.40;99.90;;;;;;2603203;54;20026;31
2024/02/08 15:13:21;;;;;;;11.80;5.70;;;5.40;99.90;;;;;;2603151;54;20886;31
2024/02/08 15:15:58;;;;;;;13.03;6.10;;;5.40;99.90;;;;;;2603187;54;20845;31
2024/02/08 15:18:47;;;;;;;10.60;5.22;;;5.30;99.90;;;;;;2621858;46;20806;31
2024/02/08 15:21:40;;;;;;;16.65;5.55;;;5.30;99.90;;;;;;2603074;54;20913;31
2024/02/08 15:24:19;;;;;;;16.00;5.70;;;5.30;99.90;;;;;;2603259;54;20843;31
2024/02/08 15:27:09;;;;;;;15.07;6.60;;;5.30;99.90;;;;;;2603193;54;20029;31
2024/02/08 15:29:52;;;;;;;17.97;6.27;;;5.20;99.90;;;;;;2603169;54;20870;31
2024/02/08 15:32:46;;;;;;;18.70;8.00;;;5.20;99.90;;;;;;2603080;54;20806;31
2024/02/08 15:35:23;;;;;;;19.87;7.27;;;5.20;99.90;;;;;;2603045;54;20090;31
2024/02/08 15:43:29;;;;;;;14.23;7.03;;;5.10;99.90;;;;;;2603009;54;20063;31
2024/02/08 15:46:10;;;;;;;14.63;6.65;;;5.10;99.90;;;;;;2603272;54;20265;31
2024/02/08 15:48:48;;;;;;;14.30;6.65;;;5.10;99.90;;;;;;2603086;54;20760;31
2024/02/08 15:51:28;;;;;;;12.20;5.80;;;5.00;99.90;;;;;;2621592;46;20026;31
2024/02/08 15:54:08;;;;;;;18.45;5.85;;;5.00;99.90;;;;;;2621570;46;20071;31
2024/02/08 15:56:43;;;;;;;10.60;4.97;;;5.00;99.90;;;;;;2603084;54;20849;31
2024/02/08 15:59:22;;;;;;;13.10;5.45;;;5.00;99.90;;;;;;2603197;54;20736;31
2024/02/08 16:01:57;;;;;;;15.33;4.93;;;5.00;99.90;;;;;;2603099;54;20033;31
2024/02/08 16:04:44;;;;;;;12.85;5.25;;;5.00;99.90;;;;;;2602981;54;20272;31
2024/02/08 16:07:19;;;;;;;17.83;6.40;;;5.00;99.90;;;;;;2603217;54;20035;31
2024/02/08 16:10:19;;;;;;;14.57;6.17;;;5.00;99.90;;;;;;2621402;46;20493;31
2024/02/08 16:13:04;;;;;;;14.80;5.55;;;5.00;99.90;;;;;;2621545;46;20278;31
2024/02/08 16:15:55;;;;;;;17.70;6.47;;;5.00;99.90;;;;;;2603052;54;20027;31
2024/02/08 16:18:35;;;;;;;12.30;5.45;;;5.00;99.90;;;;;;2619498;46;20028;31
2024/02/08 16:21:16;;;;;;;16.40;8.10;;;5.00;99.90;;;;;;2602594;54;20804;31
2024/02/08 16:23:54;;;;;;;19.45;7.00;;;5.00;99.90;;;;;;2603132;54;20865;31
2024/02/08 16:26:34;;;;;;;17.10;6.68;;;5.00;99.90;;;;;;2602765;54;20054;31
2024/02/08 16:29:16;;;;;;;12.80;6.15;;;5.00;99.90;;;;;;2602870;54;20038;31
2024/02/08 16:31:54;;;;;;;36.43;11.80;;;5.00;99.90;;;;;;2602831;54;20063;31
2024/02/08 16:34:34;;;;;;;36.28;14.23;;;5.00;99.90;;;;;;2602932;54;20026;31
2024/02/08 16:37:30;;;;;;;35.50;15.10;;;5.00;99.90;;;;;;2603157;54;20026;31
2024/02/08 16:40:14;;;;;;;25.75;13.45;;;4.90;99.90;;;;;;2621282;46;21308;31
2024/02/08 16:42:56;;;;;;;18.77;10.27;;;5.00;99.90;;;;;;2602962;54;21929;31
2024/02/08 16:45:34;;;;;;;17.13;8.60;;;5.00;99.90;;;;;;2603074;54;20022;31
2024/02/08 16:48:20;;;;;;;16.65;8.02;;;4.90;99.90;;;;;;2602856;54;20241;31
2024/02/08 16:51:09;;;;;;;14.90;7.75;;;5.10;99.90;;;;;;2602920;54;20052;31
2024/02/08 16:54:18;;;;;;;238.05;63.55;;;5.10;99.90;;;;;;2602930;54;20881;31
2024/02/08 16:56:52;;;;;;;149.55;47.13;;;5.10;99.90;;;;;;2602786;54;20027;31
2024/02/08 16:59:43;;;;;;;65.65;26.50;;;5.10;99.90;;;;;;2602632;54;20034;31
2024/02/08 17:02:39;;;;;;;75.32;35.13;;;5.00;99.90;;;;;;2602808;54;20069;31
2024/02/08 17:05:20;;;;;;;88.65;39.50;;;5.00;99.90;;;;;;2602813;54;20027;31
2024/02/08 17:08:02;;;;;;;143.52;55.60;;;4.90;99.90;;;;;;2602725;54;20026;31
2024/02/08 17:10:43;;;;;;;109.20;44.75;;;4.90;99.90;;;;;;2602821;54;20096;31
2024/02/08 17:13:27;;;;;;;77.75;31.05;;;4.90;99.90;;;;;;2602992;54;20775;31
2024/02/08 17:16:24;;;;;;;49.28;23.85;;;4.80;99.90;;;;;;2701354;39;21510;31
2024/02/08 17:22:18;;;;;;;41.57;19.77;;;4.80;99.90;;;;;;2602838;54;20927;31
2024/02/08 17:25:23;;;;;;;50.70;21.55;;;4.70;99.90;;;;;;2602888;54;20779;31
2024/02/08 17:28:14;;;;;;;47.17;22.20;;;4.70;99.90;;;;;;2701163;39;21472;31
2024/02/08 17:33:49;;;;;;;40.78;19.88;;;4.70;99.90;;;;;;2621233;46;20104;31
2024/02/08 17:36:30;;;;;;;36.95;21.90;;;4.70;99.90;;;;;;2602895;54;20779;31
2024/02/08 17:39:08;;;;;;;60.25;33.70;;;4.70;99.90;;;;;;2621069;46;20868;31
2024/02/08 17:41:43;;;;;;;;;;;4.70;99.90;;;;;;2602977;54;20913;31
2024/02/08 17:44:19;;;;;;;24.98;14.07;;;4.80;99.90;;;;;;2701189;39;21395;31
2024/02/08 17:46:55;;;;;;;26.55;12.65;;;4.70;99.90;;;;;;2621173;46;20046;31
2024/02/08 17:49:32;;;;;;;25.70;14.40;;;4.70;99.90;;;;;;2602683;54;20767;31
2024/02/08 17:52:15;;;;;;;26.20;13.00;;;4.70;99.90;;;;;;2621081;46;20038;31
2024/02/08 17:54:52;;;;;;;22.55;13.10;;;4.70;99.90;;;;;;2602448;54;20038;31
2024/02/08 17:57:29;;;;;;;29.95;12.32;;;4.70;99.90;;;;;;2602342;54;20038;31